Hauptseite
METAR-TAF:

METAR-TAF

Flughäfen :

Flughafen Vitoria

Vitoria, Spanien

Breite: 42-53N, Länge: 002-43W, Höhe: 513 m

Beobachtung

Neuester Wetterbericht von vor 41 Minuten, um 13:00 UTC
Wind 6 kt aus Südost, variierte zwischen Ost und West/Südwest
Temperatur 35°C
Luftfeuchtigkeit 27%
Luftdruck 1016 hPa
Sichtweite 10 km oder mehr
Leicht bewölkt in der Höhe von 4000 ft

METAR: LEVT 061300Z 13006KT 080V240 9999 FEW040 35/13 Q1016

Zeit: 15:41 (13:41 UTC)

Prognose

Neuester Wetterbericht von vor 2 Stunden und 41 Minuten, um 11:00 UTC
Gültige Prognose vom 06 um 12 UTC bis 07 um 12 UTC
Wind 9 kt aus Südost
Sichtweite 10 km oder mehr
keine Wolken unter 1500 m und keine Kumulonimbus oder Gewitterwolken

TAF: LEVT 061100Z 0612/0712 14009KT CAVOK TX37/0615Z TN22/0706Z

Wetterbeobachtungen und Prognosen von mehr als 4000 Flughäfen (METAR und TAF Bericht).

Die verfügbaren Stationen werden durch gelbe und rote Markierungen auf der Karte dargestellt.

Führen Sie die Maus auf sie, um den Namen der Station zu sehen.

Darauf klicken, um die Beobachtung von Wetterbeobachtungen und Prognosen zu sehen.

Um die Karte zu ändern : klicken Sie auf den grünen Tasten mit einem schwarzen Kreuz Zum Vergrößern, auf den grünen Button mit einem Gedankenstrich zu verkleinern, oder auf die grünen Pfeile für benachbarte Karten.


METAR-TAF: